Time;durP1;ratioP1;P1;durP2;ratioP2;P2;SDS_P1;SDS_P2;PMS_P1;PMS_P2;Temp;Humidity;BMP_temperature;BMP_pressure;BME280_temperature;BME280_humidity;BME280_pressure;Samples;Min_cycle;Max_cycle;Signal;HPM_P1;HPM_P2
2023/06/17 00:00:06;;;;;;;;;16.00;15.75;;;;;27.02;29.45;101027.09;4956879;28;45548;-44
2023/06/17 00:02:32;;;;;;;;;17.00;14.00;;;;;26.99;29.70;101032.66;4939718;28;45882;-43
2023/06/17 00:04:57;;;;;;;;;18.00;15.75;;;;;27.01;29.82;101036.06;4957131;28;45828;-45
2023/06/17 00:07:22;;;;;;;;;13.67;13.67;;;;;27.01;29.85;101036.06;4956568;28;52369;-44
2023/06/17 00:09:47;;;;;;;;;16.50;15.25;;;;;26.99;29.65;101035.31;4956417;28;54332;-48
2023/06/17 00:12:13;;;;;;;;;17.75;16.00;;;;;26.99;29.58;101032.66;4956843;28;45260;-44
2023/06/17 00:14:40;;;;;;;;;17.25;15.25;;;;;26.98;29.95;101025.66;4956784;28;45153;-44
2023/06/17 00:17:08;;;;;;;;;17.50;13.50;;;;;26.97;30.06;101019.50;4957323;28;45337;-43
2023/06/17 00:19:35;;;;;;;;;15.75;15.50;;;;;26.97;30.06;101039.91;4939973;28;47363;-43
2023/06/17 00:22:00;;;;;;;;;14.75;14.50;;;;;26.97;29.62;101023.94;4956650;28;45722;-44
2023/06/17 00:24:26;;;;;;;;;18.00;16.25;;;;;26.96;30.11;101027.59;4939583;28;45779;-43
2023/06/17 00:26:51;;;;;;;;;16.00;15.50;;;;;26.94;30.45;101013.59;4956901;28;45316;-43
2023/06/17 00:29:16;;;;;;;;;14.75;14.75;;;;;26.92;30.19;101010.19;4956473;28;45864;-43
2023/06/17 00:31:42;;;;;;;;;15.25;13.50;;;;;26.93;29.84;101011.88;4956704;28;45232;-44
2023/06/17 00:34:07;;;;;;;;;12.75;12.75;;;;;26.92;30.31;101013.69;4956479;28;55025;-41
2023/06/17 00:36:33;;;;;;;;;15.00;14.25;;;;;26.92;30.02;101016.34;4956805;28;45279;-44
2023/06/17 00:38:58;;;;;;;;;16.00;15.50;;;;;26.92;30.24;101005.72;4956349;28;46549;-43
2023/06/17 00:41:23;;;;;;;;;13.75;13.75;;;;;26.91;30.45;101008.50;4956383;28;45726;-45
2023/06/17 00:43:49;;;;;;;;;13.75;13.75;;;;;26.91;30.46;101009.34;4956505;28;45521;-44
2023/06/17 00:46:30;;;;;;;;;15.00;15.00;;;;;26.91;30.26;100995.19;4959362;28;45279;-44
2023/06/17 00:48:55;;;;;;;;;15.00;14.00;;;;;26.90;30.48;100993.50;4959566;28;46495;-43
2023/06/17 00:51:21;;;;;;;;;14.50;14.50;;;;;26.89;30.40;100989.16;4959565;28;45272;-44
2023/06/17 00:53:47;;;;;;;;;14.75;14.00;;;;;26.85;30.31;100986.75;4959713;28;45373;-43
2023/06/17 00:56:13;;;;;;;;;15.25;13.25;;;;;26.89;30.36;100978.53;4959877;28;45555;-44
2023/06/17 00:58:39;;;;;;;;;14.75;14.75;;;;;26.87;30.40;100980.44;4942238;28;47463;-44
2023/06/17 01:01:04;;;;;;;;;13.25;13.00;;;;;26.87;30.53;100977.78;4959255;28;45515;-45
2023/06/17 01:03:30;;;;;;;;;15.75;15.00;;;;;26.85;30.59;100973.44;4959407;28;45421;-43
2023/06/17 01:05:59;;;;;;;;;18.00;15.00;;;;;26.84;30.28;100974.41;4942244;28;45404;-44
2023/06/17 01:08:44;;;;;;;;;12.75;12.75;;;;;26.83;30.48;100967.44;4959091;28;45659;-43
2023/06/17 01:11:19;;;;;;;;;14.00;14.00;;;;;26.79;30.30;100968.63;4941975;28;45877;-44
2023/06/17 01:13:47;;;;;;;;;12.75;12.75;;;;;26.80;30.57;100966.81;4959462;28;45260;-42
2023/06/17 01:16:14;;;;;;;;;19.50;17.00;;;;;26.82;30.32;100965.72;4959533;28;45487;-44
2023/06/17 01:18:40;;;;;;;;;14.75;14.50;;;;;26.81;30.50;100964.03;4959533;28;46463;-44
2023/06/17 01:21:06;;;;;;;;;14.50;14.25;;;;;26.81;30.55;100965.84;4959228;28;45954;-46
2023/06/17 01:23:37;;;;;;;;;15.25;13.00;;;;;26.82;30.59;100959.56;4959247;28;45449;-46
2023/06/17 01:26:04;;;;;;;;;12.75;11.00;;;;;26.82;30.67;100962.22;4959321;28;45430;-43
2023/06/17 01:28:30;;;;;;;;;14.00;13.00;;;;;26.83;30.65;100958.59;4958986;28;45408;-44
2023/06/17 01:30:56;;;;;;;;;14.25;13.25;;;;;26.80;30.54;100965.00;4958995;28;45969;-44
2023/06/17 01:33:23;;;;;;;;;13.75;13.50;;;;;26.80;30.78;100965.00;4959086;28;45421;-43
2023/06/17 01:36:21;;;;;;;;;14.75;13.75;;;;;26.82;30.53;100962.22;4959330;28;45524;-45
2023/06/17 01:38:50;;;;;;;;;14.25;13.25;;;;;26.79;30.74;100963.31;4958893;28;46447;-44
2023/06/17 01:41:20;;;;;;;;;15.50;13.50;;;;;26.80;30.81;100959.69;4958885;28;45830;-44
2023/06/17 01:43:49;;;;;;;;;14.00;14.00;;;;;26.80;30.80;100953.50;4959011;28;45276;-47
2023/06/17 01:46:15;;;;;;;;;16.00;13.50;;;;;26.79;30.75;100955.34;4959061;28;45511;-44
2023/06/17 01:48:41;;;;;;;;;14.75;14.00;;;;;26.79;30.88;100958.00;4958994;28;45449;-43
2023/06/17 01:51:07;;;;;;;;;12.25;11.75;;;;;26.80;30.86;100954.38;4958740;28;45900;-44
2023/06/17 01:53:32;;;;;;;;;14.50;12.25;;;;;26.78;30.90;100952.81;4958761;28;45402;-44
2023/06/17 01:55:58;;;;;;;;;15.25;14.50;;;;;26.75;30.63;100945.88;4958465;28;45318;-44
2023/06/17 01:58:23;;;;;;;;;15.25;15.25;;;;;26.78;30.92;100950.16;4957187;28;46520;-44
2023/06/17 02:00:49;;;;;;;;;16.00;14.75;;;;;26.75;30.89;100951.19;4958368;28;45433;-45
2023/06/17 02:03:15;;;;;;;;;17.00;14.50;;;;;26.73;31.33;100944.31;4958617;28;45344;-45
2023/06/17 02:05:42;;;;;;;;;16.00;15.00;;;;;26.71;31.11;100947.09;4959164;28;45311;-44
2023/06/17 02:08:07;;;;;;;;;16.00;14.50;;;;;26.68;30.97;100940.19;4941179;28;45601;-43
2023/06/17 02:10:33;;;;;;;;;17.00;16.25;;;;;26.70;31.26;100946.25;4958461;28;45231;-45
2023/06/17 02:13:05;;;;;;;;;14.00;12.75;;;;;26.69;31.36;100949.03;4958652;28;45277;-44
2023/06/17 02:15:30;;;;;;;;;13.50;13.00;;;;;26.67;31.16;100948.31;4958629;28;45240;-45
2023/06/17 02:17:56;;;;;;;;;11.25;11.00;;;;;26.69;31.43;100949.03;4958214;28;45686;-43
2023/06/17 02:20:22;;;;;;;;;18.00;14.00;;;;;26.69;31.32;100949.03;4958247;28;45296;-44
2023/06/17 02:22:48;;;;;;;;;16.00;14.25;;;;;26.70;31.36;100953.38;4958453;28;45304;-44
2023/06/17 02:25:13;;;;;;;;;14.25;13.25;;;;;26.69;31.46;100946.38;4958810;28;45277;-43
2023/06/17 02:27:39;;;;;;;;;14.50;13.50;;;;;26.68;31.38;100942.03;4958050;28;46506;-44
2023/06/17 02:30:05;;;;;;;;;15.00;15.00;;;;;26.68;31.51;100944.69;4958222;28;45444;-43
2023/06/17 02:32:30;;;;;;;;;14.50;14.50;;;;;26.67;31.26;100943.84;4924796;28;45450;-44
2023/06/17 02:34:57;;;;;;;;;14.00;12.00;;;;;26.64;31.48;100941.44;4958460;28;45336;-44
2023/06/17 02:37:23;;;;;;;;;14.50;13.50;;;;;26.63;31.39;100928.25;4958005;28;46142;-44
2023/06/17 02:39:48;;;;;;;;;16.25;15.00;;;;;26.65;31.52;100928.97;4958228;28;45385;-45
2023/06/17 02:42:13;;;;;;;;;16.75;14.00;;;;;26.65;31.21;100927.19;4958499;28;45370;-45
2023/06/17 02:44:39;;;;;;;;;16.50;15.50;;;;;26.62;31.47;100924.75;4958214;28;45528;-44
2023/06/17 02:47:06;;;;;;;;;13.00;11.25;;;;;26.64;31.76;100913.97;4957823;28;45449;-43
2023/06/17 02:49:31;;;;;;;;;14.25;13.00;;;;;26.64;31.64;100916.66;4958037;28;45243;-43
2023/06/17 02:51:56;;;;;;;;;16.50;13.25;;;;;26.62;31.89;100910.63;4958050;28;45264;-44
2023/06/17 02:54:22;;;;;;;;;14.50;13.25;;;;;26.61;31.80;100911.59;4958341;28;45318;-45
2023/06/17 02:56:47;;;;;;;;;15.75;15.00;;;;;26.62;31.36;100902.66;4957828;28;45371;-45
2023/06/17 02:59:14;;;;;;;;;17.00;14.50;;;;;26.61;31.82;100900.97;4958181;28;45991;-44
2023/06/17 03:01:42;;;;;;;;;16.75;15.25;;;;;26.59;31.61;100909.03;4957810;28;45314;-43
2023/06/17 03:04:10;;;;;;;;;14.00;11.75;;;;;26.57;32.09;100897.69;4940548;28;45525;-43
2023/06/17 03:06:37;;;;;;;;;14.75;13.75;;;;;26.60;32.14;100909.91;4957392;28;46068;-43
2023/06/17 03:09:05;;;;;;;;;14.75;14.75;;;;;26.60;31.96;100897.44;4957517;28;45432;-43
2023/06/17 03:11:30;;;;;;;;;14.00;12.50;;;;;26.61;32.11;100900.97;4957754;28;45336;-44
2023/06/17 03:13:55;;;;;;;;;14.75;14.75;;;;;26.62;31.53;100900.00;4957182;28;50400;-43
2023/06/17 03:16:24;;;;;;;;;14.25;14.00;;;;;26.64;31.79;100904.22;4957316;28;46159;-43
2023/06/17 03:18:49;;;;;;;;;14.25;13.00;;;;;26.63;31.71;100907.84;4957502;28;45503;-43
2023/06/17 03:21:15;;;;;;;;;16.25;14.25;;;;;26.66;31.85;100904.09;4940461;28;45442;-47
2023/06/17 03:23:42;;;;;;;;;15.75;14.00;;;;;26.64;31.83;100908.66;4957857;28;45637;-42
2023/06/17 03:26:07;;;;;;;;;12.00;12.00;;;;;26.70;32.15;100911.69;4957317;28;46159;-44
2023/06/17 03:28:33;;;;;;;;;16.50;15.50;;;;;26.70;32.12;100908.19;4940011;28;45269;-46
2023/06/17 03:30:58;;;;;;;;;13.00;13.00;;;;;26.73;32.24;100907.94;4957666;28;45346;-48
2023/06/17 03:33:23;;;;;;;;;14.00;14.00;;;;;26.71;31.67;100904.56;4957855;28;45303;-45
2023/06/17 03:35:49;;;;;;;;;12.75;12.50;;;;;26.70;32.34;100897.56;4956889;28;55759;-44
2023/06/17 03:38:14;;;;;;;;;13.75;12.25;;;;;26.64;32.18;100903.34;4957653;28;45239;-44
2023/06/17 03:40:40;;;;;;;;;13.00;13.00;;;;;26.64;32.04;100900.69;4957384;28;45529;-44
2023/06/17 03:43:05;;;;;;;;;20.50;14.25;;;;;26.58;31.86;100895.88;4957433;28;45348;-44
2023/06/17 03:45:32;;;;;;;;;12.67;12.33;;;;;26.56;31.94;100893.38;4956361;28;65418;-45
2023/06/17 03:47:58;;;;;;;;;14.00;13.00;;;;;26.55;32.13;100897.81;4956962;28;45468;-44
2023/06/17 03:50:23;;;;;;;;;15.75;12.00;;;;;26.54;32.38;100898.78;4957228;28;45467;-41
2023/06/17 03:52:49;;;;;;;;;16.25;14.25;;;;;26.53;31.99;100905.06;4957558;28;45579;-42
2023/06/17 03:55:16;;;;;;;;;12.75;12.75;;;;;26.52;32.26;100897.22;4939537;28;46981;-43
2023/06/17 03:57:42;;;;;;;;;13.50;13.00;;;;;26.55;32.16;100900.47;4956896;28;45730;-43
2023/06/17 04:00:10;;;;;;;;;13.50;13.50;;;;;26.54;32.04;100901.44;4957045;28;45251;-45
2023/06/17 04:02:35;;;;;;;;;11.00;10.25;;;;;26.53;32.17;100899.75;4957029;28;45363;-44
2023/06/17 04:05:02;;;;;;;;;13.50;13.50;;;;;26.51;32.26;100899.03;4956914;28;46944;-47
2023/06/17 04:07:28;;;;;;;;;14.50;13.75;;;;;26.49;32.45;100903.63;4956658;28;45978;-43
2023/06/17 04:09:54;;;;;;;;;12.50;12.50;;;;;26.48;32.61;100901.94;4957017;28;45374;-45
2023/06/17 04:12:19;;;;;;;;;12.75;12.00;;;;;26.46;32.24;100901.22;4957309;28;45469;-43
2023/06/17 04:14:44;;;;;;;;;13.50;13.50;;;;;26.43;32.29;100898.78;4956777;28;46545;-45
2023/06/17 04:17:10;;;;;;;;;17.50;15.25;;;;;26.41;32.04;100902.56;4956729;28;45252;-43
2023/06/17 04:19:37;;;;;;;;;12.25;12.25;;;;;26.39;32.68;100902.69;4957160;28;49134;-42
2023/06/17 04:22:05;;;;;;;;;14.00;13.00;;;;;26.37;32.03;100901.97;4943008;28;45382;-44
2023/06/17 04:24:30;;;;;;;;;13.00;12.25;;;;;26.35;32.55;100898.56;4959935;28;47199;-43
2023/06/17 04:26:56;;;;;;;;;14.00;14.00;;;;;26.34;32.54;100895.09;4959824;28;45367;-43
2023/06/17 04:29:21;;;;;;;;;12.00;11.00;;;;;26.33;32.32;100898.72;4960320;28;45326;-44
2023/06/17 04:31:46;;;;;;;;;12.00;12.00;;;;;26.35;32.71;100909.19;4960190;28;45360;-43
2023/06/17 04:34:21;;;;;;;;;13.75;11.75;;;;;26.32;32.70;100906.78;4959941;28;46499;-45
2023/06/17 04:36:49;;;;;;;;;11.25;10.25;;;;;26.30;32.31;100898.94;4959904;28;45438;-45
2023/06/17 04:39:14;;;;;;;;;12.00;12.00;;;;;26.30;32.40;100909.56;4959999;28;45405;-43
2023/06/17 04:41:46;;;;;;;;;15.00;13.00;;;;;26.29;32.51;100907.03;4942691;28;45565;-43
2023/06/17 04:44:12;;;;;;;;;16.50;12.75;;;;;26.28;32.71;100905.34;4959604;28;46119;-43
2023/06/17 04:46:38;;;;;;;;;14.75;12.75;;;;;26.26;32.64;100904.63;4959754;28;45871;-42
2023/06/17 04:49:03;;;;;;;;;16.00;12.25;;;;;26.22;32.68;100891.56;4959773;28;45382;-42
2023/06/17 04:51:29;;;;;;;;;16.00;13.25;;;;;26.22;32.53;100896.88;4959956;28;45496;-44
2023/06/17 04:53:54;;;;;;;;;14.00;14.00;;;;;26.21;32.65;100889.88;4959393;28;45398;-43
2023/06/17 04:56:20;;;;;;;;;11.50;11.50;;;;;26.16;32.69;100884.09;4959916;28;45477;-44
2023/06/17 04:58:45;;;;;;;;;12.25;11.00;;;;;26.17;32.93;100888.44;4959663;28;45326;-45
2023/06/17 05:01:11;;;;;;;;;13.75;12.75;;;;;26.14;32.88;100896.66;4959663;28;45248;-44
2023/06/17 05:03:36;;;;;;;;;12.00;12.00;;;;;26.11;32.69;100886.25;4959254;28;45822;-45
2023/06/17 05:06:02;;;;;;;;;16.75;13.75;;;;;26.12;32.90;100881.81;4959477;28;45231;-42
2023/06/17 05:08:27;;;;;;;;;12.00;12.00;;;;;26.08;32.79;100883.81;4959421;28;45477;-44
2023/06/17 05:10:53;;;;;;;;;13.25;12.25;;;;;26.07;33.27;100892.75;4942489;28;45397;-45
2023/06/17 05:13:18;;;;;;;;;14.50;13.50;;;;;26.04;33.58;100890.34;4959140;28;47060;-45
2023/06/17 05:15:44;;;;;;;;;11.75;11.25;;;;;26.03;33.41;100892.13;4959240;28;45451;-44
2023/06/17 05:18:09;;;;;;;;;13.25;11.75;;;;;26.03;33.04;100888.66;4959349;28;45824;-43
2023/06/17 05:20:34;;;;;;;;;15.50;14.75;;;;;26.01;33.63;100887.91;4942179;28;45253;-44
2023/06/17 05:23:00;;;;;;;;;16.75;15.00;;;;;26.02;33.54;100890.44;4959217;28;45497;-46
2023/06/17 05:25:25;;;;;;;;;14.00;13.00;;;;;26.02;33.40;100889.59;4959349;28;45453;-42
2023/06/17 05:27:51;;;;;;;;;12.50;12.00;;;;;26.03;33.00;100894.78;4959335;28;45382;-44
2023/06/17 05:30:16;;;;;;;;;14.00;12.25;;;;;26.07;33.03;100903.38;4959353;28;45323;-45
2023/06/17 05:32:41;;;;;;;;;13.00;13.00;;;;;26.05;33.32;100900.84;4940601;28;47272;-46
2023/06/17 05:35:07;;;;;;;;;12.75;12.75;;;;;26.05;33.46;100898.19;4959165;28;45318;-45
2023/06/17 05:37:32;;;;;;;;;10.00;10.00;;;;;26.07;33.23;100898.91;4941749;28;45353;-44
2023/06/17 05:39:57;;;;;;;;;12.50;12.00;;;;;26.08;33.60;100897.09;4959317;28;45516;-48
2023/06/17 05:42:23;;;;;;;;;15.50;14.00;;;;;26.08;33.15;100874.03;4959055;28;46193;-44
2023/06/17 05:44:48;;;;;;;;;14.00;14.00;;;;;26.08;33.53;100879.34;4941658;28;45346;-43
2023/06/17 05:47:14;;;;;;;;;12.50;12.00;;;;;26.10;33.65;100887.22;4958920;28;45311;-45
2023/06/17 05:49:39;;;;;;;;;14.75;12.75;;;;;26.10;33.25;100881.91;4959135;28;45557;-45
2023/06/17 05:52:05;;;;;;;;;13.25;12.50;;;;;26.11;33.20;100875.63;4958647;28;45962;-45
2023/06/17 05:54:31;;;;;;;;;11.75;11.75;;;;;26.14;33.32;100888.69;4941541;28;45648;-43
2023/06/17 05:56:56;;;;;;;;;14.75;13.00;;;;;26.14;33.62;100879.84;4959107;28;45541;-44
2023/06/17 05:59:23;;;;;;;;;14.00;11.50;;;;;26.14;33.38;100883.38;4958478;28;48991;-43
2023/06/17 06:01:49;;;;;;;;;12.75;11.75;;;;;26.14;33.55;100886.03;4940959;28;47348;-43
2023/06/17 06:04:14;;;;;;;;;14.00;12.25;;;;;26.14;33.54;100888.69;4958542;28;45329;-45
2023/06/17 06:06:39;;;;;;;;;13.75;11.00;;;;;26.15;33.44;100887.72;4941142;28;45325;-43
2023/06/17 06:09:05;;;;;;;;;12.50;12.00;;;;;26.16;33.19;100896.53;4958572;28;45216;-43
2023/06/17 06:11:30;;;;;;;;;14.25;11.00;;;;;26.13;33.45;100892.31;4958318;28;46165;-44
2023/06/17 06:13:55;;;;;;;;;12.00;12.00;;;;;26.14;33.49;100893.13;4958610;28;45316;-44
2023/06/17 06:16:21;;;;;;;;;14.50;13.50;;;;;26.18;33.59;100911.34;4958508;28;45299;-45
2023/06/17 06:18:46;;;;;;;;;11.25;11.25;;;;;26.18;33.17;100900.75;4958652;28;45417;-42
2023/06/17 06:21:11;;;;;;;;;13.00;12.00;;;;;26.19;33.18;100902.44;4957966;28;50574;-45
2023/06/17 06:23:37;;;;;;;;;13.50;12.75;;;;;26.22;33.16;100906.69;4957974;28;45852;-45
2023/06/17 06:26:02;;;;;;;;;12.25;12.25;;;;;26.20;33.20;100909.44;4958309;28;45421;-46
2023/06/17 06:28:28;;;;;;;;;10.75;9.50;;;;;26.22;33.32;100907.50;4958708;28;45557;-44
2023/06/17 06:30:53;;;;;;;;;15.00;13.00;;;;;26.24;33.19;100916.22;4958054;28;45982;-44
2023/06/17 06:33:18;;;;;;;;;14.25;13.00;;;;;26.24;33.64;100910.91;4958081;28;45453;-44
2023/06/17 06:35:44;;;;;;;;;12.25;12.25;;;;;26.26;33.49;100904.63;4958160;28;45431;-45
2023/06/17 06:38:09;;;;;;;;;12.00;11.00;;;;;26.27;33.42;100908.97;4958339;28;45445;-43
2023/06/17 06:40:34;;;;;;;;;14.75;12.25;;;;;26.29;33.82;100907.88;4958063;28;46087;-44
2023/06/17 06:43:00;;;;;;;;;13.50;12.75;;;;;26.31;33.07;100905.09;4957843;28;45772;-44
2023/06/17 06:45:25;;;;;;;;;13.75;12.75;;;;;26.29;33.31;100907.03;4958252;28;45279;-46
2023/06/17 06:47:51;;;;;;;;;13.75;12.00;;;;;26.33;33.35;100913.78;4958036;28;45278;-44
2023/06/17 06:50:16;;;;;;;;;11.50;11.50;;;;;26.34;33.18;100915.47;4957808;28;46081;-44
2023/06/17 06:52:41;;;;;;;;;15.00;12.25;;;;;26.33;33.33;100919.09;4957810;28;45413;-44
2023/06/17 06:55:07;;;;;;;;;10.75;10.75;;;;;26.38;33.65;100914.28;4957946;28;45236;-47
2023/06/17 06:57:32;;;;;;;;;12.50;11.75;;;;;26.41;33.62;100922.00;4940624;28;45602;-43
2023/06/17 06:59:58;;;;;;;;;11.75;10.50;;;;;26.43;33.45;100920.06;4957713;28;45267;-45
2023/06/17 07:02:23;;;;;;;;;12.33;11.33;;;;;26.46;33.39;100922.47;4956719;28;64582;-47
2023/06/17 07:04:49;;;;;;;;;14.50;13.50;;;;;26.49;33.16;100918.72;4957354;28;47750;-43
2023/06/17 07:07:14;;;;;;;;;12.25;11.50;;;;;26.49;33.23;100924.91;4957600;28;45327;-44
2023/06/17 07:09:39;;;;;;;;;10.50;10.50;;;;;26.53;33.16;100925.50;4957379;28;47353;-44
2023/06/17 07:12:07;;;;;;;;;12.50;12.50;;;;;26.54;33.30;100927.19;4957329;28;45414;-43
2023/06/17 07:14:33;;;;;;;;;11.25;10.00;;;;;26.52;33.23;100918.50;4957554;28;45409;-44
2023/06/17 07:16:58;;;;;;;;;15.00;13.75;;;;;26.56;33.52;100927.91;4957797;28;45650;-44
2023/06/17 07:19:23;;;;;;;;;13.75;12.50;;;;;26.58;33.16;100931.28;4957093;28;46003;-44
2023/06/17 07:21:49;;;;;;;;;12.25;12.00;;;;;26.60;33.52;100921.38;4957188;28;45441;-44
2023/06/17 07:24:16;;;;;;;;;11.50;10.00;;;;;26.60;33.17;100926.69;4957405;28;45288;-45
2023/06/17 07:26:41;;;;;;;;;11.75;10.50;;;;;26.61;33.29;100924.88;4957479;28;45509;-42
2023/06/17 07:29:06;;;;;;;;;13.00;11.50;;;;;26.60;32.74;100929.34;4957168;28;45613;-44
2023/06/17 07:31:32;;;;;;;;;12.25;11.75;;;;;26.61;32.94;100927.53;4940092;28;45473;-43
2023/06/17 07:33:57;;;;;;;;;13.50;11.25;;;;;26.64;33.40;100932.59;4957421;28;45291;-43
2023/06/17 07:36:22;;;;;;;;;13.00;11.00;;;;;26.64;33.07;100932.59;4957450;28;45574;-43
2023/06/17 07:38:48;;;;;;;;;14.00;12.00;;;;;26.64;33.35;100932.59;4957018;28;45380;-43
2023/06/17 07:41:13;;;;;;;;;10.00;10.00;;;;;26.64;33.01;100930.81;4957238;28;45833;-44
2023/06/17 07:43:38;;;;;;;;;14.25;12.50;;;;;26.65;33.67;100936.94;4957283;28;45379;-43
2023/06/17 07:46:04;;;;;;;;;13.75;12.00;;;;;26.66;33.16;100938.63;4957554;28;45477;-46
2023/06/17 07:48:30;;;;;;;;;11.25;10.25;;;;;26.65;32.87;100935.16;4956910;28;53680;-45
2023/06/17 07:50:56;;;;;;;;;12.75;11.75;;;;;26.65;33.09;100927.19;4956932;28;46849;-43
2023/06/17 07:53:21;;;;;;;;;13.00;11.00;;;;;26.65;33.44;100929.84;4939636;28;45343;-46
2023/06/17 07:55:47;;;;;;;;;16.50;13.50;;;;;26.65;33.36;100935.16;4959625;28;45410;-45
2023/06/17 07:58:13;;;;;;;;;13.75;11.00;;;;;26.67;33.06;100935.03;4942713;28;45682;-44
2023/06/17 08:00:38;;;;;;;;;13.75;12.00;;;;;26.68;33.24;100939.38;4960216;28;45365;-44
2023/06/17 08:03:05;;;;;;;;;11.50;10.00;;;;;26.66;33.61;100930.66;4960256;28;56581;-45
2023/06/17 08:05:30;;;;;;;;;14.00;12.50;;;;;26.68;33.05;100932.22;4960801;28;45326;-44
2023/06/17 08:07:55;;;;;;;;;11.25;11.25;;;;;26.69;33.32;100935.75;4959665;28;62249;-44
2023/06/17 08:10:21;;;;;;;;;11.25;10.50;;;;;26.66;33.10;100931.53;4960274;28;45319;-43
2023/06/17 08:12:47;;;;;;;;;12.25;12.25;;;;;26.67;33.24;100927.91;4960375;28;45319;-43
2023/06/17 08:15:12;;;;;;;;;11.75;10.75;;;;;26.70;33.15;100929.47;4960478;28;45636;-44
2023/06/17 08:17:38;;;;;;;;;8.25;7.75;;;;;26.73;33.33;100931.03;4959955;28;46399;-42
2023/06/17 08:20:04;;;;;;;;;12.00;12.00;;;;;26.73;33.15;100925.69;4960407;28;45290;-45
2023/06/17 08:22:29;;;;;;;;;12.00;12.00;;;;;26.73;33.04;100920.38;4960233;28;45476;-44
2023/06/17 08:24:55;;;;;;;;;13.50;12.00;;;;;26.75;33.25;100915.78;4942993;28;45276;-45
2023/06/17 08:27:20;;;;;;;;;15.75;11.25;;;;;26.76;33.38;100920.97;4959974;28;46371;-44
2023/06/17 08:29:45;;;;;;;;;9.75;9.75;;;;;26.77;33.30;100914.69;4959559;28;54777;-44
2023/06/17 08:32:11;;;;;;;;;11.75;11.00;;;;;26.79;33.43;100914.63;4960028;28;45661;-46
2023/06/17 08:34:37;;;;;;;;;11.25;11.25;;;;;26.80;33.06;100910.97;4960198;28;45469;-46
